Weather Models
Both GFS & NAM
00z 06z 12z 18z
24hr Precip
00z 06z 12z 18z
36hr Simulated radar
00z 06z 12z 18z
SKEWT Soundings
00z 12z
Current Conditions (Updated 12:55pm on 2/23/17)
Temperature
 64°
3.56
64°  
49°  
0
10
20
30
40
50
60
70
80
90
100
Dew Point
55°
56°  
42°  
-20
-10
0
10
20
30
40
50
60
70
80
Wind Chill
64°
64°  
47°  
-20
-10
0
10
20
30
40
50
60
70
80
Wind Chill
Humidity
74%
90% 
74% 
0
10
20
30
40
50
60
70
80
90
100
Barometer
29.87
   Falling
29.93  
29.87  
28.00
28.30
28.60
28.90
29.20
29.50
29.80
30.10
30.40
30.70
31.00
Temperature
Dew Point
Humidity
Pressure
Wind
4mph
 SE
Daily Rain
.00
.05
.10
.15
.20
.25
.30
.35
.40
.45
.50
Rain Today
 0.00" 
Month Rain
0.00
0.20
0.40
0.60
0.80
1.00
1.20
1.40
1.60
1.80
2.00
Month Rain
 0.91" 
Year Rain
0.00
0.50
1.00
1.50
2.00
2.50
3.00
3.50
4.00
4.50
5.00
Year Rain
 4.03" 
Sun & Moon Data
Sunrise 6:40am
Sunset 5:44pm
Moonrise 4:39am
Moonset 2:56pm
Moon % 13%
Other Rain Data
Past Hour 0.00 Past 24 Hours 0.00
Past 3 Hours 0.00 Past 7 Days 0.00
Past 6 Hours 0.00
Cloud Height
2106


Current Front Map
Current Satellite map
7 Day Forecast
NWS Forecast for Philadelphia PA
National Weather Service Forecast for: Philadelphia PA
Issued by: National Weather Service Philadelphia, PA
Updated: 1:18 pm EST Feb 23, 2017

Philadelphia
 
Tonight

Tonight: Patchy fog after 2am.  Otherwise, mostly cloudy, with a low around 53. South wind 5 to 7 mph.
Partly Cloudy
then Patchy
Fog
Friday

Friday: Areas of fog before 10am.  Otherwise, mostly cloudy, with a high near 71. South wind 5 to 10 mph.
Areas Fog
then Partly
Sunny
Friday
Night
Friday Night: Patchy fog after 11pm.  Otherwise, mostly cloudy, with a low around 53. South wind around 8 mph.
Patchy Fog

Saturday

Saturday: A chance of showers, then showers and possibly a thunderstorm after 2pm.  Patchy fog before 8am. High near 70. South wind 6 to 14 mph.  Chance of precipitation is 80%. New rainfall amounts between a tenth and quarter of an inch, except higher amounts possible in thunderstorms.
Chance
Showers and
Patchy Fog
then Showers
Saturday
Night
Saturday Night: Showers and possibly a thunderstorm before 8pm, then a chance of showers between 8pm and 2am.  Low around 37. West wind 11 to 13 mph.  Chance of precipitation is 80%. New precipitation amounts between a tenth and quarter of an inch, except higher amounts possible in thunderstorms.
Showers then
Chance
Showers
Sunday

Sunday: Sunny, with a high near 48.
Sunny

Sunday
Night
Sunday Night: Mostly clear, with a low around 33.
Mostly Clear

Monday

Monday: Partly sunny, with a high near 54.
Partly Sunny

Monday
Night
Monday Night: A chance of showers after 8pm.  Mostly cloudy, with a low around 38. Chance of precipitation is 30%.
Chance
Showers

Lo 53 °F Hi 71 °F Lo 53 °F Hi 70 °F Lo 37 °F Hi 48 °F Lo 33 °F Hi 54 °F Lo 38 °F

Hazardous Weather Outlook
 

Tonight
 
Patchy fog after 2am. Otherwise, mostly cloudy, with a low around 53. South wind 5 to 7 mph.
Friday
 
Areas of fog before 10am. Otherwise, mostly cloudy, with a high near 71. South wind 5 to 10 mph.
Friday Night
 
Patchy fog after 11pm. Otherwise, mostly cloudy, with a low around 53. South wind around 8 mph.
Saturday
 
A chance of showers, then showers and possibly a thunderstorm after 2pm. Patchy fog before 8am. High near 70. South wind 6 to 14 mph. Chance of precipitation is 80%. New rainfall amounts between a tenth and quarter of an inch, except higher amounts possible in thunderstorms.
Saturday Night
 
Showers and possibly a thunderstorm before 8pm, then a chance of showers between 8pm and 2am. Low around 37. West wind 11 to 13 mph. Chance of precipitation is 80%. New precipitation amounts between a tenth and quarter of an inch, except higher amounts possible in thunderstorms.
Sunday
 
Sunny, with a high near 48.
Sunday Night
 
Mostly clear, with a low around 33.
Monday
 
Partly sunny, with a high near 54.
Monday Night
 
A chance of showers after 8pm. Mostly cloudy, with a low around 38. Chance of precipitation is 30%.
Tuesday
 
A chance of showers. Partly sunny, with a high near 56. Chance of precipitation is 30%.
Tuesday Night
 
A chance of showers. Mostly cloudy, with a low around 44. Chance of precipitation is 40%.
Wednesday
 
A chance of showers. Mostly cloudy, with a high near 62. Chance of precipitation is 50%.
Wednesday Night
 
A chance of showers. Mostly cloudy, with a low around 44. Chance of precipitation is 50%.
Thursday
 
A chance of showers. Mostly sunny, with a high near 50. Chance of precipitation is 30%.

 

Forecast from NOAA-NWS for Philadelphia PA.

Area Weather Current Conditions
Nearby METAR Reports

KPHL - Philadelphia, Pennsylvania
Updated: Thu, 23-Feb-2017 3:54pm EST
Partly Cloudy
Partly Cloudy
 Wind from SW
Wind: SW 8 mph , 13 km/h
Temperature: 72°F , 22°C
Dew Point: 54°F , 12°C
Humidity: 53%
Barometer: 29.82 inHg , 1009.8 hPa
Clouds: Partly Cloudy
Visibility: 10 miles , 16 km
Cloud details: Few Clouds 4500 ft
Few Clouds 7000 ft
Partly Cloudy 27000 ft
2017/02/23 20:54 KPHL 232054Z 22007KT 10SM FEW045 FEW070 SCT270 22/12 A2982 RMK AO2 SLP098 T02220117 55010
KMPO - Mt. Pocono, Pennsylvania
Updated: Thu, 23-Feb-2017 3:53pm EST
Few Clouds
Few Clouds
 Wind from WSW
Wind: WSW 12 mph , 19 km/h
Temperature: 63°F , 17°C
Dew Point: 52°F , 11°C
Humidity: 68%
Barometer: 29.79 inHg , 1008.8 hPa
Clouds: Few Clouds
Visibility: 10 miles , 16 km
Cloud details: Few Clouds 3600 ft
2017/02/23 20:53 KMPO 232053Z AUTO 24010KT 10SM FEW036 17/11 A2979 RMK AO2 SLP091 T01720106 56004
 
KACY - Atlantic City, New Jersey
Updated: Thu, 23-Feb-2017 3:54pm EST
Clear
Clear
 Wind from S
Wind: S 12 mph , 19 km/h
Temperature: 64°F , 18°C
Dew Point: 50°F , 10°C
Humidity: 60%
Barometer: 29.85 inHg , 1010.8 hPa
Clouds: Clear
Visibility: 10 miles , 16 km
2017/02/23 20:54 KACY 232054Z 17010KT 10SM CLR 18/10 A2985 RMK AO2 SLP106 T01830100 55003
KMIV - Millville, New Jersey
Updated: Thu, 23-Feb-2017 3:54pm EST
Clear
Clear
 Wind from S
Wind: S 7 mph , 11 km/h
Temperature: 72°F , 22°C
Dew Point: 55°F , 13°C
Humidity: 57%
Barometer: 29.83 inHg , 1010.2 hPa
Clouds: Clear
Visibility: 10 miles , 16 km
2017/02/23 20:54 KMIV 232054Z AUTO 18006KT 10SM CLR 22/13 A2983 RMK AO2 SLP101 T02170128 55009
 
KWWD - Wildwood, New Jersey
Updated: Thu, 23-Feb-2017 3:56pm EST
Clear
Clear
 Wind from S
Wind: S 12 mph , 19 km/h
Temperature: 63°F , 17°C
Dew Point: 52°F , 11°C
Humidity: 68%
Barometer: 29.87 inHg , 1011.5 hPa
Clouds: Clear
Visibility: 10 miles , 16 km
2017/02/23 20:56 KWWD 232056Z AUTO 18010KT 10SM CLR 17/11 A2987 RMK AO2 SLP116 T01720106 55004 $
KDOV - Dover Afb, Delaware
Updated: Thu, 23-Feb-2017 3:58pm EST
Clear
Clear
 Wind from SW
Wind: SW 16 mph , 26 km/h
Temperature: 73°F , 23°C
Dew Point: 57°F , 14°C
Humidity: 57%
Barometer: 29.82 inHg , 1009.8 hPa
Clouds: Clear
Visibility: 10 miles , 16 km
2017/02/23 20:58 KDOV 232058Z AUTO 22014KT 10SM CLR 23/14 A2982 RMK AO2 SLP101 T02280142 55006 $
Severe Weather Map
Recent Forum Post
[Philadelphia] Request for Philly Snow Data by JC February 14, 2017, 08:42:21 PM
[Philadelphia] 2016 -2017 Winter snow forecast by JC December 01, 2016, 04:56:31 AM
[Philadelphia] Winter forecast 2016-2017 by xyonist November 30, 2016, 01:14:08 PM
[Philadelphia] 102.7 last Saturday by JC August 20, 2016, 03:26:22 AM
[Philadelphia] 2015 -2016 Winter snow forecast by JC April 19, 2016, 09:42:40 AM
[Philadelphia] Latest Models on Weekend Storm (Photos) by JC January 23, 2016, 12:01:03 PM
[Philadelphia] Possible large snow storm for end of week ? by JC January 21, 2016, 09:17:47 AM
[Philadelphia] El Nino! by vicente6 September 16, 2015, 01:57:08 AM